Time;durP1;ratioP1;P1;durP2;ratioP2;P2;SDS_P1;SDS_P2;PMS_P1;PMS_P2;Temp;Humidity;BMP_temperature;BMP_pressure;BME280_temperature;BME280_humidity;BME280_pressure;Samples;Min_cycle;Max_cycle;Signal;HPM_P1;HPM_P2
2023/11/24 00:01:19;;;;;;;18.85;2.10;;;;;;;;;;5050235;28;20152;-77
2023/11/24 00:03:45;;;;;;;14.27;2.40;;;;;;;;;;5087631;28;20028;-77
2023/11/24 00:06:12;;;;;;;9.65;1.40;;;;;;;;;;5070270;28;20082;-77
2023/11/24 00:08:38;;;;;;;15.45;2.15;;;;;;;;;;5073180;28;20063;-77
2023/11/24 00:11:03;;;;;;;11.80;2.15;;;;;;;;;;5068390;28;20064;-77
2023/11/24 00:13:29;;;;;;;14.73;2.40;;;;;;;;;;5065702;28;20490;-77
2023/11/24 00:15:55;;;;;;;11.00;1.92;;;;;;;;;;5072402;28;20029;-77
2023/11/24 00:18:21;;;;;;;11.15;1.73;;;;;;;;;;5104716;27;20032;-78
2023/11/24 00:20:47;;;;;;;14.63;2.15;;;;;;;;;;5052895;28;20036;-77
2023/11/24 00:23:13;;;;;;;15.43;1.95;;;;;;;;;;5068512;28;20060;-77
2023/11/24 00:25:38;;;;;;;9.63;1.70;;;;;;;;;;5089498;28;20067;-77
2023/11/24 00:28:04;;;;;;;14.45;2.13;;;;;;;;;;5066913;28;20025;-76
2023/11/24 00:30:30;;;;;;;8.10;1.45;;;;;;;;;;5066346;28;20025;-77
2023/11/24 00:32:55;;;;;;;10.52;1.88;;;;;;;;;;5053866;28;20020;-77
2023/11/24 00:35:21;;;;;;;7.80;1.40;;;;;;;;;;5067158;28;20033;-77
2023/11/24 00:37:46;;;;;;;9.25;1.70;;;;;;;;;;5085389;28;20119;-77
2023/11/24 00:40:13;;;;;;;10.80;1.60;;;;;;;;;;5055398;28;20097;-77
2023/11/24 00:42:42;;;;;;;10.90;1.33;;;;;;;;;;5068621;28;20035;-77
2023/11/24 00:45:09;;;;;;;13.65;1.70;;;;;;;;;;5071922;28;20047;-77
2023/11/24 00:47:35;;;;;;;11.18;1.80;;;;;;;;;;5087072;28;20040;-92
2023/11/24 00:50:00;;;;;;;8.40;1.40;;;;;;;;;;5054267;28;20035;-93
2023/11/24 00:52:28;;;;;;;9.00;1.60;;;;;;;;;;5047491;28;20024;-94
2023/11/24 00:54:56;;;;;;;13.32;1.60;;;;;;;;;;5039991;28;20033;-90
2023/11/24 00:57:21;;;;;;;7.38;1.45;;;;;;;;;;5052329;28;20051;-92
2023/11/24 00:59:49;;;;;;;8.18;1.52;;;;;;;;;;5062341;28;20082;-91
2023/11/24 01:02:14;;;;;;;8.20;1.15;;;;;;;;;;5042961;28;20040;-90
2023/11/24 01:04:40;;;;;;;7.85;1.10;;;;;;;;;;5071100;28;20059;-92
2023/11/24 01:07:06;;;;;;;5.03;1.00;;;;;;;;;;5043582;28;20401;-95
2023/11/24 01:09:31;;;;;;;5.65;1.13;;;;;;;;;;5057672;28;20157;-92
2023/11/24 01:11:57;;;;;;;6.80;0.90;;;;;;;;;;5057735;28;20052;-91
2023/11/24 01:14:22;;;;;;;4.55;0.70;;;;;;;;;;5050589;28;20374;-93
2023/11/24 01:16:49;;;;;;;6.78;1.00;;;;;;;;;;5065937;28;20052;-93
2023/11/24 01:19:14;;;;;;;4.05;0.60;;;;;;;;;;5051010;28;20028;-92
2023/11/24 01:21:40;;;;;;;4.57;0.85;;;;;;;;;;5040680;28;20124;-91
2023/11/24 01:24:06;;;;;;;4.78;0.50;;;;;;;;;;5083227;28;20107;-91
2023/11/24 01:26:31;;;;;;;3.80;0.60;;;;;;;;;;5038675;28;20039;-95
2023/11/24 01:28:58;;;;;;;5.68;0.55;;;;;;;;;;5048893;28;20505;-92
2023/11/24 01:31:24;;;;;;;4.63;0.93;;;;;;;;;;5074581;28;20052;-93
2023/11/24 01:33:50;;;;;;;4.93;0.70;;;;;;;;;;5059463;28;20106;-90
2023/11/24 01:36:15;;;;;;;5.18;0.80;;;;;;;;;;5068762;28;20492;-94
2023/11/24 01:38:41;;;;;;;5.65;0.70;;;;;;;;;;5067354;28;20094;-92
2023/11/24 01:41:06;;;;;;;3.72;0.52;;;;;;;;;;5058475;28;20051;-91
2023/11/24 01:43:32;;;;;;;4.88;0.60;;;;;;;;;;5089672;28;20028;-91
2023/11/24 01:45:57;;;;;;;4.85;0.88;;;;;;;;;;5078174;28;20127;-94
2023/11/24 01:48:24;;;;;;;5.35;1.23;;;;;;;;;;5071475;28;20059;-91
2023/11/24 01:50:50;;;;;;;3.15;0.60;;;;;;;;;;5054657;28;20032;-91
2023/11/24 01:53:16;;;;;;;6.22;0.82;;;;;;;;;;5053666;28;20021;-94
2023/11/24 01:55:42;;;;;;;9.65;1.10;;;;;;;;;;5080877;28;20040;-95
2023/11/24 01:58:08;;;;;;;4.25;0.90;;;;;;;;;;5055055;28;20478;-94
2023/11/24 02:00:34;;;;;;;5.75;0.68;;;;;;;;;;5061931;28;20450;-93
2023/11/24 02:03:00;;;;;;;7.72;0.88;;;;;;;;;;5051016;28;20547;-93
2023/11/24 02:05:25;;;;;;;3.90;0.98;;;;;;;;;;5053300;28;20028;-93
2023/11/24 02:07:51;;;;;;;4.70;0.80;;;;;;;;;;5051699;28;20029;-77
2023/11/24 02:10:17;;;;;;;4.13;0.77;;;;;;;;;;5069338;28;20049;-77
2023/11/24 02:12:42;;;;;;;6.03;0.80;;;;;;;;;;5069641;28;20090;-77
2023/11/24 02:15:11;;;;;;;6.15;0.73;;;;;;;;;;5065343;28;20075;-77
2023/11/24 02:17:37;;;;;;;6.20;0.60;;;;;;;;;;5085623;28;20036;-78
2023/11/24 02:20:08;;;;;;;4.55;0.90;;;;;;;;;;5066644;28;20413;-77
2023/11/24 02:22:44;;;;;;;8.23;0.90;;;;;;;;;;5053930;28;20025;-77
2023/11/24 02:25:10;;;;;;;5.30;0.80;;;;;;;;;;5081068;28;20078;-77
2023/11/24 02:27:36;;;;;;;7.43;0.90;;;;;;;;;;5064604;28;20071;-77
2023/11/24 02:30:03;;;;;;;4.10;0.77;;;;;;;;;;5075866;28;20083;-77
2023/11/24 02:32:28;;;;;;;6.35;0.93;;;;;;;;;;5061589;28;20056;-77
2023/11/24 02:34:54;;;;;;;7.57;1.15;;;;;;;;;;5063471;28;20056;-77
2023/11/24 02:37:20;;;;;;;8.70;1.13;;;;;;;;;;5082804;28;20029;-77
2023/11/24 02:39:45;;;;;;;7.93;1.02;;;;;;;;;;5067147;28;20509;-77
2023/11/24 02:42:11;;;;;;;5.72;0.90;;;;;;;;;;5058904;28;20454;-77
2023/11/24 02:44:36;;;;;;;8.27;1.67;;;;;;;;;;5066810;28;20032;-77
2023/11/24 02:47:01;;;;;;;8.25;1.25;;;;;;;;;;5067002;28;20093;-77
2023/11/24 02:49:28;;;;;;;5.85;0.90;;;;;;;;;;5066307;28;20024;-77
2023/11/24 02:51:54;;;;;;;4.25;0.90;;;;;;;;;;5070906;28;20060;-77
2023/11/24 02:54:19;;;;;;;5.25;0.70;;;;;;;;;;5065727;28;20497;-77
2023/11/24 02:56:45;;;;;;;3.65;0.80;;;;;;;;;;5047349;28;20033;-77
2023/11/24 02:59:10;;;;;;;7.85;0.85;;;;;;;;;;5065108;28;20454;-77
2023/11/24 03:01:36;;;;;;;5.70;0.70;;;;;;;;;;5062059;28;20442;-77
2023/11/24 03:04:02;;;;;;;9.25;1.17;;;;;;;;;;5061879;28;20493;-77
2023/11/24 03:06:28;;;;;;;5.80;0.90;;;;;;;;;;5075425;28;20032;-77
2023/11/24 03:08:53;;;;;;;4.20;0.90;;;;;;;;;;5070502;28;20028;-77
2023/11/24 03:11:19;;;;;;;4.43;0.70;;;;;;;;;;5068488;28;20447;-77
2023/11/24 03:13:45;;;;;;;4.25;0.60;;;;;;;;;;5044822;28;20029;-76
2023/11/24 03:16:10;;;;;;;5.88;0.77;;;;;;;;;;5066583;28;20078;-77
2023/11/24 03:18:36;;;;;;;4.22;0.60;;;;;;;;;;5063525;28;20035;-78
2023/11/24 03:21:01;;;;;;;5.72;0.90;;;;;;;;;;5067772;28;20051;-77
2023/11/24 03:23:27;;;;;;;2.30;0.57;;;;;;;;;;5069645;28;20032;-77
2023/11/24 03:25:52;;;;;;;5.28;0.70;;;;;;;;;;5068050;28;20087;-78
2023/11/24 03:28:20;;;;;;;5.30;0.70;;;;;;;;;;5099521;27;20103;-92
2023/11/24 03:30:46;;;;;;;5.25;0.70;;;;;;;;;;5068007;28;20029;-94
2023/11/24 03:33:14;;;;;;;3.63;0.77;;;;;;;;;;5049780;28;20031;-92
2023/11/24 03:35:39;;;;;;;6.13;0.88;;;;;;;;;;5054522;28;20036;-93
2023/11/24 03:38:05;;;;;;;6.30;1.05;;;;;;;;;;5066523;28;20028;-94
2023/11/24 03:40:30;;;;;;;6.45;0.82;;;;;;;;;;5052543;28;20032;-95
2023/11/24 03:42:56;;;;;;;3.78;0.70;;;;;;;;;;5065268;28;20135;-94
2023/11/24 03:45:21;;;;;;;6.25;0.80;;;;;;;;;;5053225;28;20099;-95
2023/11/24 03:47:47;;;;;;;6.28;0.75;;;;;;;;;;5054104;28;20025;-92
2023/11/24 03:50:13;;;;;;;6.38;0.88;;;;;;;;;;5054573;28;20489;-92
2023/11/24 03:52:39;;;;;;;7.05;0.80;;;;;;;;;;5075908;28;20482;-92
2023/11/24 03:55:07;;;;;;;5.63;0.80;;;;;;;;;;5038926;28;20036;-94
2023/11/24 03:57:33;;;;;;;8.20;1.17;;;;;;;;;;5067152;28;20036;-93
2023/11/24 03:59:58;;;;;;;8.25;0.90;;;;;;;;;;5065737;28;20029;-94
2023/11/24 04:02:24;;;;;;;9.27;1.30;;;;;;;;;;5058313;28;20025;-92
2023/11/24 04:04:51;;;;;;;8.90;1.30;;;;;;;;;;5054379;28;20035;-95
2023/11/24 04:07:16;;;;;;;5.13;0.95;;;;;;;;;;5055616;28;20410;-95
2023/11/24 04:09:44;;;;;;;8.43;1.50;;;;;;;;;;5070616;28;20045;-93
2023/11/24 04:12:10;;;;;;;5.45;0.80;;;;;;;;;;5071735;28;20027;-92
2023/11/24 04:14:35;;;;;;;3.40;0.50;;;;;;;;;;5060439;28;20028;-91
2023/11/24 04:17:01;;;;;;;7.15;1.08;;;;;;;;;;5056762;28;20063;-92
2023/11/24 04:19:27;;;;;;;7.20;1.17;;;;;;;;;;5068585;28;20079;-92
2023/11/24 04:21:52;;;;;;;10.15;1.10;;;;;;;;;;5053651;28;20498;-94
2023/11/24 04:24:18;;;;;;;9.95;0.98;;;;;;;;;;5067779;28;20030;-93
2023/11/24 04:26:43;;;;;;;6.05;0.98;;;;;;;;;;5064678;28;20453;-93
2023/11/24 04:29:09;;;;;;;9.60;1.13;;;;;;;;;;5086382;28;20025;-92
2023/11/24 04:31:34;;;;;;;9.10;1.17;;;;;;;;;;5057453;28;20037;-92
2023/11/24 04:34:00;;;;;;;5.55;0.95;;;;;;;;;;5072871;28;20512;-94
2023/11/24 04:36:25;;;;;;;9.32;1.42;;;;;;;;;;5057890;28;20043;-94
2023/11/24 04:38:52;;;;;;;8.73;1.17;;;;;;;;;;5060441;28;20024;-77
2023/11/24 04:41:17;;;;;;;7.13;0.98;;;;;;;;;;5063688;28;20032;-77
2023/11/24 04:43:43;;;;;;;6.55;0.85;;;;;;;;;;5053221;28;20036;-77
2023/11/24 04:46:09;;;;;;;9.23;0.90;;;;;;;;;;5080560;28;20553;-77
2023/11/24 04:48:37;;;;;;;3.70;0.70;;;;;;;;;;5067077;28;20929;-77
2023/11/24 04:51:04;;;;;;;8.65;1.42;;;;;;;;;;5081898;28;20036;-77
2023/11/24 04:53:30;;;;;;;5.75;0.95;;;;;;;;;;5070303;28;20120;-78
2023/11/24 04:55:55;;;;;;;7.25;1.65;;;;;;;;;;5071283;28;20103;-76
2023/11/24 04:58:21;;;;;;;6.95;0.77;;;;;;;;;;5052522;28;20033;-77
2023/11/24 05:00:46;;;;;;;8.30;0.95;;;;;;;;;;5053817;28;20478;-76
2023/11/24 05:03:12;;;;;;;9.15;1.20;;;;;;;;;;5052742;28;20391;-77
2023/11/24 05:05:38;;;;;;;9.05;0.90;;;;;;;;;;5055289;28;20425;-76
2023/11/24 05:08:04;;;;;;;8.48;0.90;;;;;;;;;;5036894;28;20025;-77
2023/11/24 05:10:30;;;;;;;2.78;0.50;;;;;;;;;;5070328;28;20474;-77
2023/11/24 05:12:56;;;;;;;4.75;0.70;;;;;;;;;;5060376;28;20029;-77
2023/11/24 05:15:22;;;;;;;7.25;0.90;;;;;;;;;;5078712;28;20400;-77
2023/11/24 05:17:48;;;;;;;7.72;1.00;;;;;;;;;;5051196;28;20033;-77
2023/11/24 05:20:14;;;;;;;6.20;0.80;;;;;;;;;;5068175;28;20037;-78
2023/11/24 05:22:40;;;;;;;7.10;1.17;;;;;;;;;;5053329;28;20109;-77
2023/11/24 05:25:07;;;;;;;6.68;0.82;;;;;;;;;;5055328;28;20490;-78
2023/11/24 05:27:32;;;;;;;4.82;1.20;;;;;;;;;;5062849;28;20028;-77
2023/11/24 05:29:58;;;;;;;6.82;0.98;;;;;;;;;;5054414;28;20494;-78
2023/11/24 05:32:24;;;;;;;8.77;0.90;;;;;;;;;;5053571;28;20036;-77
2023/11/24 05:34:50;;;;;;;5.95;0.88;;;;;;;;;;5050442;28;20048;-77
2023/11/24 05:37:16;;;;;;;5.78;0.75;;;;;;;;;;5073290;28;20500;-77
2023/11/24 05:39:42;;;;;;;8.18;0.82;;;;;;;;;;5082869;28;20068;-77
2023/11/24 05:42:07;;;;;;;5.03;0.68;;;;;;;;;;5062319;28;20029;-77
2023/11/24 05:44:33;;;;;;;6.55;1.02;;;;;;;;;;5068233;28;20170;-77
2023/11/24 05:46:58;;;;;;;8.85;1.08;;;;;;;;;;5050704;28;20501;-93
2023/11/24 05:49:24;;;;;;;5.68;0.80;;;;;;;;;;5068229;28;20044;-93
2023/11/24 05:51:49;;;;;;;6.22;0.63;;;;;;;;;;5060632;28;20413;-92
2023/11/24 05:54:15;;;;;;;6.35;0.77;;;;;;;;;;5073774;28;20106;-90
2023/11/24 05:56:41;;;;;;;7.20;1.00;;;;;;;;;;5078746;28;20032;-92
2023/11/24 05:59:06;;;;;;;5.10;0.63;;;;;;;;;;5066931;28;20024;-89
2023/11/24 06:01:32;;;;;;;5.20;0.50;;;;;;;;;;5051284;28;20032;-93
2023/11/24 06:03:57;;;;;;;6.28;0.90;;;;;;;;;;5061558;28;20033;-89
2023/11/24 06:06:23;;;;;;;3.28;0.45;;;;;;;;;;5060509;28;20067;-87
2023/11/24 06:08:48;;;;;;;5.15;0.60;;;;;;;;;;5053931;28;20470;-89
2023/11/24 06:11:17;;;;;;;6.10;0.90;;;;;;;;;;5064803;28;20570;-88
2023/11/24 06:13:49;;;;;;;2.63;0.50;;;;;;;;;;5056785;28;20094;-90
2023/11/24 06:16:14;;;;;;;9.10;0.80;;;;;;;;;;5068200;28;20111;-89
2023/11/24 06:18:40;;;;;;;8.63;0.80;;;;;;;;;;5045112;28;20120;-87
2023/11/24 06:21:06;;;;;;;4.63;0.60;;;;;;;;;;5053713;28;20035;-87
2023/11/24 06:23:31;;;;;;;4.38;0.65;;;;;;;;;;5071850;28;20037;-88
2023/11/24 06:25:57;;;;;;;8.02;1.15;;;;;;;;;;5049996;28;20041;-88
2023/11/24 06:28:22;;;;;;;4.75;0.60;;;;;;;;;;5060130;28;20102;-89
2023/11/24 06:30:48;;;;;;;6.90;0.65;;;;;;;;;;5050753;28;20398;-89
2023/11/24 06:33:14;;;;;;;5.05;0.52;;;;;;;;;;5082342;28;20386;-89
2023/11/24 06:35:39;;;;;;;2.15;0.50;;;;;;;;;;5084770;28;20513;-87
2023/11/24 06:38:04;;;;;;;5.03;0.77;;;;;;;;;;5080579;28;20063;-88
2023/11/24 06:40:30;;;;;;;3.28;0.50;;;;;;;;;;5048538;28;20167;-89
2023/11/24 06:42:55;;;;;;;5.18;0.80;;;;;;;;;;5036984;28;20032;-88
2023/11/24 06:45:21;;;;;;;5.05;0.52;;;;;;;;;;5079064;28;20037;-88
2023/11/24 06:47:47;;;;;;;4.97;0.90;;;;;;;;;;5049351;28;20029;-89
2023/11/24 06:50:12;;;;;;;5.55;0.60;;;;;;;;;;5083346;28;20422;-87
2023/11/24 06:52:39;;;;;;;5.80;0.60;;;;;;;;;;5070358;28;20032;-87
2023/11/24 06:55:06;;;;;;;5.28;0.60;;;;;;;;;;5061960;28;20072;-88
2023/11/24 06:57:32;;;;;;;4.20;0.60;;;;;;;;;;5054984;28;20543;-76
2023/11/24 06:59:57;;;;;;;5.53;0.60;;;;;;;;;;5049539;28;20025;-77
2023/11/24 07:02:22;;;;;;;5.80;0.60;;;;;;;;;;5063151;28;20044;-76
2023/11/24 07:04:49;;;;;;;3.53;0.57;;;;;;;;;;5069545;28;20025;-77
2023/11/24 07:07:15;;;;;;;5.70;0.98;;;;;;;;;;5052155;28;20074;-77
2023/11/24 07:09:41;;;;;;;3.55;0.77;;;;;;;;;;5082637;28;21054;-77
2023/11/24 07:12:07;;;;;;;4.53;0.70;;;;;;;;;;5052957;28;20433;-77
2023/11/24 07:14:33;;;;;;;5.75;0.70;;;;;;;;;;5064731;28;20048;-77
2023/11/24 07:16:58;;;;;;;4.35;0.60;;;;;;;;;;5083949;28;20024;-77
2023/11/24 07:19:24;;;;;;;3.35;0.73;;;;;;;;;;5059400;28;20036;-77
2023/11/24 07:21:49;;;;;;;6.88;0.70;;;;;;;;;;5070149;28;20032;-77
2023/11/24 07:24:15;;;;;;;5.00;0.70;;;;;;;;;;5065625;28;20513;-77
2023/11/24 07:26:40;;;;;;;5.00;0.85;;;;;;;;;;5068032;28;20041;-76
2023/11/24 07:29:06;;;;;;;5.15;0.88;;;;;;;;;;5045840;28;20032;-77
2023/11/24 07:31:31;;;;;;;5.70;0.80;;;;;;;;;;5062708;28;20040;-77
2023/11/24 07:33:57;;;;;;;3.63;0.65;;;;;;;;;;5047242;28;20440;-76
2023/11/24 07:36:22;;;;;;;5.03;0.63;;;;;;;;;;5062284;28;20040;-76
2023/11/24 07:38:48;;;;;;;7.85;1.02;;;;;;;;;;5067130;28;20516;-76
2023/11/24 07:41:14;;;;;;;4.88;0.80;;;;;;;;;;5063455;28;20386;-77
2023/11/24 07:43:39;;;;;;;7.10;0.70;;;;;;;;;;5064261;28;20114;-76
2023/11/24 07:46:07;;;;;;;7.10;0.90;;;;;;;;;;5060684;28;20068;-77
2023/11/24 07:48:33;;;;;;;4.43;0.70;;;;;;;;;;5055739;28;20043;-77
2023/11/24 07:51:00;;;;;;;6.47;0.88;;;;;;;;;;5064300;28;20577;-76
2023/11/24 07:53:27;;;;;;;8.55;0.95;;;;;;;;;;5053519;28;20419;-76
2023/11/24 07:55:52;;;;;;;6.55;0.88;;;;;;;;;;5063947;28;20543;-77
2023/11/24 07:58:19;;;;;;;4.55;0.82;;;;;;;;;;5055984;28;20036;-77
2023/11/24 08:00:45;;;;;;;6.82;1.05;;;;;;;;;;5046093;28;20035;-76
2023/11/24 08:03:11;;;;;;;4.38;0.63;;;;;;;;;;5060113;28;20090;-77
2023/11/24 08:05:36;;;;;;;3.85;0.70;;;;;;;;;;5064643;28;20032;-77
2023/11/24 08:08:02;;;;;;;3.75;0.52;;;;;;;;;;5062878;28;20032;-86
2023/11/24 08:10:28;;;;;;;3.75;0.77;;;;;;;;;;5064930;28;20031;-86
2023/11/24 08:12:54;;;;;;;7.07;0.98;;;;;;;;;;5071446;28;20479;-86
2023/11/24 08:15:19;;;;;;;4.18;0.47;;;;;;;;;;5068806;28;20032;-86
2023/11/24 08:17:45;;;;;;;5.15;0.60;;;;;;;;;;5034114;28;20036;-88
2023/11/24 08:20:10;;;;;;;4.70;0.77;;;;;;;;;;5055530;28;20036;-87
2023/11/24 08:22:39;;;;;;;4.60;0.63;;;;;;;;;;5054937;28;20025;-87
2023/11/24 08:25:06;;;;;;;5.35;1.02;;;;;;;;;;5054248;28;20028;-86
2023/11/24 08:27:32;;;;;;;5.10;1.05;;;;;;;;;;5080167;28;20341;-88
2023/11/24 08:29:58;;;;;;;3.30;0.50;;;;;;;;;;5084573;28;20064;-86
2023/11/24 08:32:24;;;;;;;8.50;1.25;;;;;;;;;;5052920;28;20485;-87
2023/11/24 08:34:49;;;;;;;3.42;0.50;;;;;;;;;;5053251;28;20039;-86
2023/11/24 08:37:15;;;;;;;4.75;0.65;;;;;;;;;;5053573;28;20418;-86
2023/11/24 08:39:40;;;;;;;3.13;0.55;;;;;;;;;;5067400;28;20120;-87
2023/11/24 08:42:06;;;;;;;4.38;0.80;;;;;;;;;;5070312;28;20127;-87
2023/11/24 08:44:31;;;;;;;7.75;0.77;;;;;;;;;;5069068;28;20093;-87
2023/11/24 08:46:57;;;;;;;5.30;0.70;;;;;;;;;;5070748;28;20032;-87
2023/11/24 08:49:22;;;;;;;4.63;0.75;;;;;;;;;;5067085;28;20044;-85
2023/11/24 08:51:48;;;;;;;2.60;0.50;;;;;;;;;;5066837;28;20044;-87
2023/11/24 08:54:14;;;;;;;4.85;0.70;;;;;;;;;;5069726;28;20036;-87
2023/11/24 08:56:39;;;;;;;6.22;0.77;;;;;;;;;;5083856;28;20037;-87
2023/11/24 08:59:08;;;;;;;5.05;0.65;;;;;;;;;;5054550;28;20029;-87
2023/11/24 09:01:34;;;;;;;6.32;0.93;;;;;;;;;;5066360;28;20075;-86
2023/11/24 09:03:59;;;;;;;4.18;0.68;;;;;;;;;;5074967;28;20059;-86
2023/11/24 09:06:31;;;;;;;1.85;0.30;;;;;;;;;;5059357;28;20058;-87
2023/11/24 09:08:58;;;;;;;3.67;0.32;;;;;;;;;;5055135;28;20115;-87
2023/11/24 09:11:24;;;;;;;2.63;0.55;;;;;;;;;;5072288;28;20112;-87
2023/11/24 09:13:51;;;;;;;3.00;0.47;;;;;;;;;;5079185;28;20131;-86
2023/11/24 09:16:17;;;;;;;3.92;0.43;;;;;;;;;;5054284;28;20032;-87
2023/11/24 09:18:43;;;;;;;2.53;0.40;;;;;;;;;;5070535;28;20043;-87
2023/11/24 09:21:09;;;;;;;1.92;0.38;;;;;;;;;;5082458;28;20406;-87
2023/11/24 09:23:35;;;;;;;2.22;0.40;;;;;;;;;;5040237;28;20089;-88
2023/11/24 09:26:00;;;;;;;3.05;0.50;;;;;;;;;;5061305;28;20029;-87
2023/11/24 09:28:27;;;;;;;3.78;0.60;;;;;;;;;;5055167;28;20025;-87
2023/11/24 09:30:52;;;;;;;3.40;0.50;;;;;;;;;;5066417;28;20551;-87
2023/11/24 09:33:18;;;;;;;2.17;0.38;;;;;;;;;;5046843;28;20033;-86
2023/11/24 09:35:44;;;;;;;3.83;0.57;;;;;;;;;;5063961;28;20475;-87
2023/11/24 09:38:09;;;;;;;3.08;0.40;;;;;;;;;;5047630;28;20033;-87
2023/11/24 09:40:37;;;;;;;3.40;0.55;;;;;;;;;;5064647;28;20075;-87
2023/11/24 09:43:04;;;;;;;3.17;0.70;;;;;;;;;;5055192;28;20564;-88
2023/11/24 09:45:30;;;;;;;4.40;0.57;;;;;;;;;;5062355;28;20036;-88
2023/11/24 09:47:56;;;;;;;2.25;0.40;;;;;;;;;;5067868;28;20040;-87
2023/11/24 09:50:25;;;;;;;5.18;0.70;;;;;;;;;;5065484;28;20033;-87
2023/11/24 09:52:58;;;;;;;2.85;0.70;;;;;;;;;;5068503;28;20489;-89
2023/11/24 09:55:25;;;;;;;5.13;0.70;;;;;;;;;;5067582;28;20045;-89
2023/11/24 09:57:53;;;;;;;5.25;0.63;;;;;;;;;;5067534;28;20028;-86
2023/11/24 10:00:19;;;;;;;2.90;0.60;;;;;;;;;;5061957;28;20020;-89
2023/11/24 10:02:49;;;;;;;4.25;0.70;;;;;;;;;;5052492;28;20071;-87
2023/11/24 10:05:19;;;;;;;3.17;0.50;;;;;;;;;;5066274;28;20489;-89
2023/11/24 10:07:50;;;;;;;5.53;0.75;;;;;;;;;;5066612;28;20040;-87
2023/11/24 10:10:28;;;;;;;3.00;0.60;;;;;;;;;;5079125;28;20397;-86
2023/11/24 10:12:55;;;;;;;3.45;0.77;;;;;;;;;;5069876;28;20111;-88
2023/11/24 10:15:20;;;;;;;3.85;0.50;;;;;;;;;;5068176;28;20028;-86
2023/11/24 10:17:48;;;;;;;3.60;0.73;;;;;;;;;;5053272;28;20617;-87
2023/11/24 10:20:18;;;;;;;2.15;0.60;;;;;;;;;;5064467;28;20029;-87
2023/11/24 10:22:49;;;;;;;3.58;0.90;;;;;;;;;;5072189;28;20050;-87
2023/11/24 10:25:18;;;;;;;5.15;0.50;;;;;;;;;;5054504;28;20052;-87
2023/11/24 10:27:44;;;;;;;3.22;0.60;;;;;;;;;;5067776;28;20032;-87
2023/11/24 10:30:11;;;;;;;4.50;0.55;;;;;;;;;;5052403;28;20055;-86
2023/11/24 10:32:37;;;;;;;4.07;1.05;;;;;;;;;;5068646;28;20565;-87
2023/11/24 10:35:03;;;;;;;4.30;0.65;;;;;;;;;;5082358;28;20121;-86
2023/11/24 10:37:29;;;;;;;5.97;0.60;;;;;;;;;;5079223;28;20547;-89
2023/11/24 10:39:59;;;;;;;6.40;1.10;;;;;;;;;;5068469;28;20420;-87
2023/11/24 10:42:25;;;;;;;5.05;0.60;;;;;;;;;;5083662;28;20029;-87
2023/11/24 10:44:55;;;;;;;5.40;0.95;;;;;;;;;;5058308;28;20044;-86
2023/11/24 10:47:31;;;;;;;3.50;0.60;;;;;;;;;;5066353;28;20036;-87
2023/11/24 10:50:20;;;;;;;5.10;0.77;;;;;;;;;;5066175;28;20073;-87
2023/11/24 10:53:04;;;;;;;2.78;0.88;;;;;;;;;;5067824;28;20055;-87
2023/11/24 10:55:31;;;;;;;5.72;0.90;;;;;;;;;;5065140;28;20064;-87
2023/11/24 10:57:57;;;;;;;6.18;1.20;;;;;;;;;;5053841;28;20047;-89
2023/11/24 11:00:23;;;;;;;7.10;0.68;;;;;;;;;;5062737;28;20498;-87
2023/11/24 11:02:50;;;;;;;3.85;0.70;;;;;;;;;;5064964;28;20029;-89
2023/11/24 11:05:40;;;;;;;6.07;0.70;;;;;;;;;;5064959;28;20032;-87
2023/11/24 11:08:34;;;;;;;5.38;0.70;;;;;;;;;;5070793;28;20024;-89
2023/11/24 11:11:06;;;;;;;5.28;0.80;;;;;;;;;;5071082;28;20055;-87
2023/11/24 11:13:35;;;;;;;5.55;0.60;;;;;;;;;;5070040;28;20016;-89
2023/11/24 11:16:10;;;;;;;5.50;0.75;;;;;;;;;;5071480;28;20036;-87
2023/11/24 11:18:36;;;;;;;6.47;0.65;;;;;;;;;;5070075;28;20107;-88
2023/11/24 11:21:34;;;;;;;4.85;0.77;;;;;;;;;;5048110;28;20062;-87
2023/11/24 11:24:04;;;;;;;3.05;0.63;;;;;;;;;;5048218;28;20025;-90
2023/11/24 11:26:50;;;;;;;5.45;0.77;;;;;;;;;;5062551;28;20090;-88
2023/11/24 11:29:28;;;;;;;4.35;0.73;;;;;;;;;;5086858;28;20035;-89
2023/11/24 11:31:56;;;;;;;5.25;0.70;;;;;;;;;;5062707;28;20093;-87
2023/11/24 11:34:29;;;;;;;3.60;0.70;;;;;;;;;;5063432;28;20012;-90
2023/11/24 11:37:11;;;;;;;5.63;1.50;;;;;;;;;;5058279;28;20143;-76
2023/11/24 11:39:57;;;;;;;7.15;1.10;;;;;;;;;;5054020;28;20039;-76
2023/11/24 11:42:31;;;;;;;7.00;0.60;;;;;;;;;;5075416;28;20040;-75
2023/11/24 11:45:05;;;;;;;4.32;1.00;;;;;;;;;;5050735;28;20039;-76
2023/11/24 11:47:31;;;;;;;4.75;1.20;;;;;;;;;;5067455;28;20025;-76
2023/11/24 11:49:57;;;;;;;7.88;1.00;;;;;;;;;;5065640;28;20024;-76
2023/11/24 11:52:28;;;;;;;4.03;0.90;;;;;;;;;;5063023;28;20036;-76
2023/11/24 11:54:55;;;;;;;8.43;1.10;;;;;;;;;;5068504;28;20031;-76
2023/11/24 11:57:22;;;;;;;6.95;1.10;;;;;;;;;;5070325;28;20031;-76
2023/11/24 11:59:49;;;;;;;12.02;1.40;;;;;;;;;;5050788;28;20067;-77
2023/11/24 12:22:28;;;;;;;5.20;1.40;;;;;;;;;;5049235;28;20100;-76
2023/11/24 12:24:53;;;;;;;7.00;1.10;;;;;;;;;;5047511;28;20055;-76
2023/11/24 12:27:21;;;;;;;6.22;0.90;;;;;;;;;;5030689;28;20087;-77
2023/11/24 12:29:51;;;;;;;7.10;1.20;;;;;;;;;;5057968;28;20043;-76
2023/11/24 12:32:16;;;;;;;9.48;1.52;;;;;;;;;;5066513;28;20145;-76
2023/11/24 12:34:45;;;;;;;8.55;1.33;;;;;;;;;;5066037;28;20128;-76
2023/11/24 12:37:12;;;;;;;9.32;1.30;;;;;;;;;;5048361;28;20563;-76
2023/11/24 12:39:39;;;;;;;8.63;1.25;;;;;;;;;;5058866;28;20048;-77
2023/11/24 12:42:06;;;;;;;4.60;1.13;;;;;;;;;;5062693;28;20048;-76
2023/11/24 12:44:36;;;;;;;8.50;1.73;;;;;;;;;;5051306;28;20034;-77
2023/11/24 12:47:15;;;;;;;10.38;1.88;;;;;;;;;;5068434;28;20509;-89
2023/11/24 12:50:03;;;;;;;8.70;1.67;;;;;;;;;;5063665;28;20564;-87
2023/11/24 12:52:32;;;;;;;11.18;1.20;;;;;;;;;;5078399;28;20036;-89
2023/11/24 12:54:58;;;;;;;6.05;1.15;;;;;;;;;;5059374;28;20420;-88
2023/11/24 12:57:25;;;;;;;4.45;0.77;;;;;;;;;;5064013;28;20035;-88
2023/11/24 12:59:51;;;;;;;7.50;1.05;;;;;;;;;;5058155;28;20037;-86
2023/11/24 13:02:18;;;;;;;5.90;0.90;;;;;;;;;;5060964;28;20457;-86
2023/11/24 13:04:45;;;;;;;9.18;1.30;;;;;;;;;;5061954;28;20480;-86
2023/11/24 13:07:12;;;;;;;5.20;1.05;;;;;;;;;;5052951;28;20111;-86
2023/11/24 13:09:39;;;;;;;9.07;0.90;;;;;;;;;;5066518;28;20618;-86
2023/11/24 13:12:05;;;;;;;6.00;1.20;;;;;;;;;;5043907;28;20055;-86
2023/11/24 13:14:33;;;;;;;6.57;1.65;;;;;;;;;;5061777;28;20043;-86
2023/11/24 13:16:59;;;;;;;6.60;1.00;;;;;;;;;;5064900;28;20450;-85
2023/11/24 13:19:24;;;;;;;7.78;1.52;;;;;;;;;;5057272;28;20056;-86
2023/11/24 13:21:53;;;;;;;8.35;1.30;;;;;;;;;;5070392;28;20055;-85
2023/11/24 13:24:19;;;;;;;9.18;1.10;;;;;;;;;;5045056;28;20124;-85
2023/11/24 13:26:48;;;;;;;10.95;1.45;;;;;;;;;;5061066;28;20116;-85
2023/11/24 13:29:14;;;;;;;5.03;0.90;;;;;;;;;;5055938;28;20032;-86
2023/11/24 13:31:44;;;;;;;6.20;0.75;;;;;;;;;;5049532;28;20363;-85
2023/11/24 13:34:14;;;;;;;9.02;1.33;;;;;;;;;;5056003;28;20036;-86
2023/11/24 13:36:43;;;;;;;5.70;0.88;;;;;;;;;;5045525;28;20119;-86
2023/11/24 13:39:13;;;;;;;6.68;0.90;;;;;;;;;;5064093;28;20367;-85
2023/11/24 13:41:42;;;;;;;5.28;0.60;;;;;;;;;;5063806;28;20162;-86
2023/11/24 13:44:11;;;;;;;9.70;1.30;;;;;;;;;;5079218;28;20029;-88
2023/11/24 13:46:42;;;;;;;5.63;1.05;;;;;;;;;;5050483;28;20463;-84
2023/11/24 13:49:10;;;;;;;8.63;0.93;;;;;;;;;;5054605;28;20054;-85
2023/11/24 13:51:36;;;;;;;3.60;0.73;;;;;;;;;;5076435;28;20032;-86
2023/11/24 13:54:03;;;;;;;3.70;0.75;;;;;;;;;;5053557;28;21125;-86
2023/11/24 13:56:30;;;;;;;5.38;0.77;;;;;;;;;;5062672;28;20060;-77
2023/11/24 13:59:03;;;;;;;7.85;1.30;;;;;;;;;;5077459;28;20083;-76
2023/11/24 14:01:29;;;;;;;7.93;1.40;;;;;;;;;;5027180;28;20089;-75
2023/11/24 14:03:57;;;;;;;7.63;1.20;;;;;;;;;;5060738;28;20034;-77
2023/11/24 14:06:23;;;;;;;7.68;1.23;;;;;;;;;;5061526;28;20043;-77
2023/11/24 14:08:49;;;;;;;7.97;1.15;;;;;;;;;;5077820;28;20040;-77
2023/11/24 14:11:15;;;;;;;7.45;1.40;;;;;;;;;;5076428;28;20047;-77
2023/11/24 14:13:41;;;;;;;9.82;1.55;;;;;;;;;;5027778;28;20466;-77
2023/11/24 14:16:06;;;;;;;8.30;1.15;;;;;;;;;;5065034;28;20086;-76
2023/11/24 14:18:32;;;;;;;7.55;1.50;;;;;;;;;;5062229;28;20123;-77
2023/11/24 14:20:58;;;;;;;4.63;1.00;;;;;;;;;;5043117;28;20039;-76
2023/11/24 14:23:24;;;;;;;8.57;1.33;;;;;;;;;;5061330;28;20040;-77
2023/11/24 14:25:53;;;;;;;7.35;1.10;;;;;;;;;;5055002;28;20036;-77
2023/11/24 14:28:20;;;;;;;9.90;1.48;;;;;;;;;;5059784;28;20040;-77
2023/11/24 14:30:48;;;;;;;7.38;1.10;;;;;;;;;;5059142;28;20028;-77
2023/11/24 14:33:13;;;;;;;6.45;0.77;;;;;;;;;;5047431;28;20024;-76
2023/11/24 14:35:41;;;;;;;7.85;0.80;;;;;;;;;;5048180;28;20059;-77
2023/11/24 14:38:07;;;;;;;7.60;1.10;;;;;;;;;;5056631;28;20821;-77
2023/11/24 14:40:32;;;;;;;4.93;0.55;;;;;;;;;;5051748;28;20348;-77
2023/11/24 14:42:58;;;;;;;7.55;0.65;;;;;;;;;;5057723;28;20052;-77
2023/11/24 14:45:25;;;;;;;4.15;0.63;;;;;;;;;;5064579;28;20044;-77
2023/11/24 14:47:54;;;;;;;6.00;0.75;;;;;;;;;;5037621;28;20032;-77
2023/11/24 14:50:25;;;;;;;3.65;0.75;;;;;;;;;;5052620;28;20035;-77
2023/11/24 14:52:51;;;;;;;4.70;1.00;;;;;;;;;;5060561;28;20115;-77
2023/11/24 14:55:21;;;;;;;4.78;0.68;;;;;;;;;;5057574;28;20020;-77
2023/11/24 14:57:55;;;;;;;3.03;0.80;;;;;;;;;;5065276;28;20024;-77
2023/11/24 15:00:30;;;;;;;5.80;0.65;;;;;;;;;;5056153;28;20050;-76
2023/11/24 15:03:08;;;;;;;4.88;0.98;;;;;;;;;;5056252;28;20501;-77